Time,TemperatureF,DewpointF,PressureIn,WindDirection,WindDirectionDegrees,WindSpeedMPH,WindSpeedGustMPH,Humidity,HourlyPrecipIn,Conditions,Clouds,dailyrainin,SolarRadiationWatts/m^2,SoftwareType,DateUTC
2013-05-10 00:01:00,51.0,27.0,30.18,NNW,334,0.0,2.0,39,-99.99,,,-99.99,0.000000,,2013-05-10 07:01:00,
2013-05-10 01:10:00,47.0,29.0,30.19,West,270,2.0,6.0,49,-99.99,,,-99.99,0.000000,,2013-05-10 08:10:00,
2013-05-10 01:52:00,47.0,29.0,30.19,West,270,2.0,6.0,49,-99.99,,,-99.99,0.000000,,2013-05-10 08:52:00,
2013-05-10 02:01:00,47.0,29.0,30.19,West,270,2.0,6.0,49,-99.99,,,-99.99,0.000000,,2013-05-10 09:01:00,
2013-05-10 02:10:00,39.0,26.0,30.19,NNW,338,1.0,1.0,58,-99.99,,,-99.99,0.000000,,2013-05-10 09:10:00,
2013-05-10 02:52:00,39.0,26.0,30.19,NNW,338,1.0,1.0,58,-99.99,,,-99.99,0.000000,,2013-05-10 09:52:00,
2013-05-10 03:02:00,39.0,26.0,30.19,NNW,338,1.0,1.0,58,-99.99,,,-99.99,0.000000,,2013-05-10 10:02:00,
2013-05-10 03:10:00,42.0,30.0,30.20,NNW,338,3.0,5.0,62,-99.99,,,-99.99,0.000000,,2013-05-10 10:10:00,
2013-05-10 03:52:00,42.0,30.0,30.20,NNW,338,3.0,5.0,62,-99.99,,,-99.99,0.000000,,2013-05-10 10:52:00,
2013-05-10 04:02:00,42.0,30.0,30.20,NNW,338,3.0,5.0,62,-99.99,,,-99.99,0.000000,,2013-05-10 11:02:00,
2013-05-10 04:10:00,42.0,29.0,30.20,ENE,61,2.0,4.0,58,-99.99,,,-99.99,0.000000,,2013-05-10 11:10:00,
2013-05-10 04:51:00,42.0,29.0,30.20,ENE,61,2.0,4.0,58,-99.99,,,-99.99,0.000000,,2013-05-10 11:51:00,
2013-05-10 05:01:00,42.0,29.0,30.20,ENE,61,2.0,4.0,58,-99.99,,,-99.99,0.000000,,2013-05-10 12:01:00,
2013-05-10 05:10:00,38.0,28.0,30.20,WNW,298,2.0,4.0,68,-99.99,,,-99.99,0.000000,,2013-05-10 12:10:00,
2013-05-10 05:51:00,38.0,28.0,30.20,WNW,298,2.0,4.0,68,-99.99,,,-99.99,0.000000,,2013-05-10 12:51:00,
2013-05-10 06:01:00,38.0,28.0,30.20,WNW,298,2.0,4.0,68,-99.99,,,-99.99,0.000000,,2013-05-10 13:01:00,
2013-05-10 06:10:00,43.0,31.0,30.22,NW,304,3.0,4.0,61,-99.99,,,-99.99,80.000000,,2013-05-10 13:10:00,
2013-05-10 06:52:00,43.0,31.0,30.22,NW,304,3.0,4.0,61,-99.99,,,-99.99,80.000000,,2013-05-10 13:52:00,
2013-05-10 07:02:00,43.0,31.0,30.22,NW,304,3.0,4.0,61,-99.99,,,-99.99,80.000000,,2013-05-10 14:02:00,
2013-05-10 07:10:00,-999.0,-99.9,30.25,NE,49,2.0,3.0,52,-99.99,,,-99.99,280.000000,,2013-05-10 14:10:00,
2013-05-10 07:51:00,49.0,32.0,30.25,NE,49,2.0,3.0,52,-99.99,,,-99.99,280.000000,,2013-05-10 14:51:00,
2013-05-10 08:01:00,49.0,32.0,30.25,NE,49,2.0,3.0,52,-99.99,,,-99.99,280.000000,,2013-05-10 15:01:00,
2013-05-10 09:10:00,63.0,35.0,30.26,NNE,14,9.0,16.0,35,-99.99,,,-99.99,690.000000,,2013-05-10 16:10:00,
2013-05-10 09:52:00,63.0,35.0,30.26,NNE,14,9.0,16.0,35,-99.99,,,-99.99,690.000000,,2013-05-10 16:52:00,
2013-05-10 10:02:00,63.0,35.0,30.26,NNE,14,9.0,16.0,35,-99.99,,,-99.99,690.000000,,2013-05-10 17:02:00,
2013-05-10 10:10:00,-999.0,-99.9,30.26,NNE,18,9.0,14.0,34,-99.99,,,-99.99,,,2013-05-10 17:10:00,
2013-05-10 10:52:00,66.0,36.0,30.26,NNE,18,9.0,14.0,34,-99.99,,,-99.99,860.000000,,2013-05-10 17:52:00,
2013-05-10 11:10:00,67.0,35.0,30.26,NNE,21,9.0,16.0,31,-99.99,,,-99.99,750.000000,,2013-05-10 18:10:00,
2013-05-10 11:54:00,67.0,35.0,30.26,NNE,21,9.0,16.0,31,-99.99,,,-99.99,750.000000,,2013-05-10 18:54:00,
2013-05-10 12:02:00,67.0,35.0,30.26,NNE,21,9.0,16.0,31,-99.99,,,-99.99,750.000000,,2013-05-10 19:02:00,
2013-05-10 12:10:00,67.0,32.0,30.25,North,11,9.0,14.0,27,-99.99,,,-99.99,340.000000,,2013-05-10 19:10:00,
2013-05-10 12:52:00,67.0,32.0,30.25,North,11,9.0,14.0,27,-99.99,,,-99.99,340.000000,,2013-05-10 19:52:00,
2013-05-10 13:01:00,67.0,32.0,30.25,North,11,9.0,14.0,27,-99.99,,,-99.99,340.000000,,2013-05-10 20:01:00,
2013-05-10 14:52:00,64.0,39.0,30.25,SW,233,10.0,15.0,40,-99.99,,,-99.99,220.000000,,2013-05-10 21:52:00,
2013-05-10 15:02:00,64.0,39.0,30.25,SW,233,10.0,15.0,40,-99.99,,,-99.99,220.000000,,2013-05-10 22:02:00,
2013-05-10 15:10:00,68.0,34.0,30.23,WNW,290,5.0,12.0,29,-99.99,,,-99.99,620.000000,,2013-05-10 22:10:00,
2013-05-10 15:52:00,68.0,34.0,30.23,WNW,290,5.0,12.0,29,-99.99,,,-99.99,620.000000,,2013-05-10 22:52:00,
2013-05-10 16:02:00,68.0,34.0,30.23,WNW,290,5.0,12.0,29,-99.99,,,-99.99,620.000000,,2013-05-10 23:02:00,
2013-05-10 16:10:00,71.0,30.0,30.21,WSW,255,3.0,9.0,22,-99.99,,,-99.99,580.000000,,2013-05-10 23:10:00,
2013-05-10 16:52:00,71.0,30.0,30.21,WSW,255,3.0,9.0,22,-99.99,,,-99.99,580.000000,,2013-05-10 23:52:00,
2013-05-10 17:01:00,71.0,30.0,30.21,WSW,255,3.0,9.0,22,-99.99,,,-99.99,580.000000,,2013-05-11 00:01:00,
2013-05-10 17:10:00,70.0,31.0,30.21,NNE,26,13.0,21.0,23,-99.99,,,-99.99,440.000000,,2013-05-11 00:10:00,
2013-05-10 17:51:00,70.0,31.0,30.21,NNE,26,13.0,21.0,23,-99.99,,,-99.99,440.000000,,2013-05-11 00:51:00,
2013-05-10 18:01:00,70.0,31.0,30.21,NNE,26,13.0,21.0,23,-99.99,,,-99.99,440.000000,,2013-05-11 01:01:00,
2013-05-10 18:10:00,67.0,29.0,30.22,NNE,13,11.0,19.0,24,-99.99,,,-99.99,130.000000,,2013-05-11 01:10:00,
2013-05-10 18:52:00,67.0,29.0,30.22,NNE,13,11.0,19.0,24,-99.99,,,-99.99,130.000000,,2013-05-11 01:52:00,
2013-05-10 19:02:00,67.0,29.0,30.22,NNE,13,11.0,19.0,24,-99.99,,,-99.99,130.000000,,2013-05-11 02:02:00,
2013-05-10 19:10:00,62.0,29.0,30.24,North,10,6.0,7.0,28,-99.99,,,-99.99,20.000000,,2013-05-11 02:10:00,
2013-05-10 19:51:00,62.0,29.0,30.24,North,10,6.0,7.0,28,-99.99,,,-99.99,20.000000,,2013-05-11 02:51:00,
2013-05-10 20:01:00,62.0,29.0,30.24,North,10,6.0,7.0,28,-99.99,,,-99.99,20.000000,,2013-05-11 03:01:00,
2013-05-10 20:10:00,59.0,28.0,30.27,NW,311,6.0,8.0,30,-99.99,,,-99.99,0.000000,,2013-05-11 03:10:00,
2013-05-10 20:53:00,59.0,28.0,30.27,NW,311,6.0,8.0,30,-99.99,,,-99.99,0.000000,,2013-05-11 03:53:00,
2013-05-10 21:02:00,59.0,28.0,30.27,NW,311,6.0,8.0,30,-99.99,,,-99.99,0.000000,,2013-05-11 04:02:00,
2013-05-10 21:10:00,57.0,26.0,30.30,North,0,4.0,6.0,30,-99.99,,,-99.99,0.000000,,2013-05-11 04:10:00,
2013-05-10 21:52:00,57.0,26.0,30.30,North,0,4.0,6.0,30,-99.99,,,-99.99,0.000000,,2013-05-11 04:52:00,
2013-05-10 22:02:00,57.0,26.0,30.30,North,0,4.0,6.0,30,-99.99,,,-99.99,0.000000,,2013-05-11 05:02:00,
2013-05-10 23:10:00,50.0,26.0,30.32,NNW,332,3.0,4.0,40,-99.99,,,-99.99,0.000000,,2013-05-11 06:10:00,
2013-05-10 23:52:00,50.0,26.0,30.32,NNW,332,3.0,4.0,40,-99.99,,,-99.99,0.000000,,2013-05-11 06:52:00,